createdAt,value
2023-03-05T00:03:32.156Z,17.02
2023-03-05T00:08:34.433Z,17.11
2023-03-05T00:13:37.378Z,17.10
2023-03-05T00:18:39.827Z,17.17
2023-03-05T00:23:41.984Z,17.01
2023-03-05T00:28:43.986Z,17.00
2023-03-05T00:33:46.465Z,17.18
2023-03-05T00:38:48.706Z,17.15
2023-03-05T00:43:50.782Z,17.22
2023-03-05T00:48:53.370Z,17.21
2023-03-05T00:53:55.959Z,17.21
2023-03-05T00:58:58.172Z,17.21
2023-03-05T01:04:04.805Z,17.30
2023-03-05T01:09:06.753Z,17.29
2023-03-05T01:14:08.835Z,17.30
2023-03-05T01:19:11.141Z,17.27
2023-03-05T01:24:12.975Z,17.29
2023-03-05T01:29:15.171Z,17.28
2023-03-05T01:34:18.387Z,17.30
2023-03-05T01:39:20.482Z,17.27
2023-03-05T01:44:30.346Z,17.28
2023-03-05T01:49:41.475Z,17.21
2023-03-05T01:55:08.499Z,17.35
2023-03-05T02:00:14.206Z,17.38
2023-03-05T02:05:27.258Z,17.32
2023-03-05T02:10:42.479Z,17.34
2023-03-05T02:15:45.084Z,17.31
2023-03-05T02:20:57.419Z,17.31
2023-03-05T02:25:59.737Z,17.34
2023-03-05T02:31:01.708Z,17.31
2023-03-05T02:36:03.954Z,17.17
2023-03-05T02:41:06.012Z,17.37
2023-03-05T02:46:08.198Z,17.31
2023-03-05T02:51:10.169Z,17.31
2023-03-05T02:56:12.295Z,17.34
2023-03-05T03:01:14.190Z,17.23
2023-03-05T03:06:16.089Z,17.27
2023-03-05T03:11:18.993Z,17.23
2023-03-05T03:16:21.065Z,17.32
2023-03-05T03:21:25.553Z,17.32
2023-03-05T03:26:27.779Z,17.26
2023-03-05T03:31:29.865Z,17.32
2023-03-05T03:36:32.374Z,17.37
2023-03-05T03:41:34.369Z,17.23
2023-03-05T03:46:36.940Z,17.24
2023-03-05T03:51:39.030Z,17.28
2023-03-05T03:56:41.064Z,17.25
2023-03-05T04:01:43.391Z,17.27
2023-03-05T04:06:45.343Z,17.32
2023-03-05T04:11:47.509Z,17.30
2023-03-05T04:16:49.530Z,17.25
2023-03-05T04:21:51.542Z,17.21
2023-03-05T04:26:54.203Z,17.22
2023-03-05T04:31:56.319Z,17.34
2023-03-05T04:36:58.051Z,17.24
2023-03-05T04:42:00.000Z,17.21
2023-03-05T04:47:02.046Z,17.20
2023-03-05T04:52:04.009Z,17.19
2023-03-05T04:57:06.676Z,17.31
2023-03-05T05:02:08.654Z,17.29
2023-03-05T05:07:11.183Z,17.28
2023-03-05T05:12:13.093Z,17.28
2023-03-05T05:17:14.986Z,17.28
2023-03-05T05:22:16.936Z,17.24
2023-03-05T05:27:18.844Z,17.22
2023-03-05T05:32:22.528Z,17.23
2023-03-05T05:37:25.959Z,17.26
2023-03-05T05:42:29.829Z,17.18
2023-03-05T05:47:31.778Z,17.24
2023-03-05T05:52:33.848Z,17.18
2023-03-05T05:57:35.950Z,17.21
2023-03-05T06:02:42.393Z,17.22
2023-03-05T06:07:44.667Z,17.19
2023-03-05T06:12:46.506Z,17.18
2023-03-05T06:17:48.669Z,17.20
2023-03-05T06:22:50.594Z,17.28
2023-03-05T06:27:52.657Z,17.26
2023-03-05T06:32:54.579Z,17.23
2023-03-05T06:37:56.477Z,17.24
2023-03-05T06:42:58.669Z,17.22
2023-03-05T06:48:00.728Z,17.23
2023-03-05T06:53:02.728Z,17.19
2023-03-05T06:58:05.030Z,17.18
2023-03-05T07:03:07.141Z,17.21
2023-03-05T07:08:09.870Z,17.16
2023-03-05T07:13:11.837Z,17.19
2023-03-05T07:18:13.741Z,17.16
2023-03-05T07:23:15.823Z,17.13
2023-03-05T07:28:17.857Z,17.09
2023-03-05T07:33:19.997Z,17.15
2023-03-05T07:38:22.435Z,17.13
2023-03-05T07:43:24.562Z,17.13
2023-03-05T07:48:26.445Z,17.11
2023-03-05T07:53:28.250Z,17.17
2023-03-05T07:58:30.180Z,17.15
2023-03-05T08:03:32.042Z,17.10
2023-03-05T08:08:33.819Z,17.12
2023-03-05T08:13:36.124Z,17.11
2023-03-05T08:18:38.028Z,17.05
2023-03-05T08:23:40.191Z,17.16
2023-03-05T08:28:42.301Z,17.13
2023-03-05T08:33:44.855Z,17.04
2023-03-05T08:38:48.787Z,17.04
2023-03-05T08:43:51.237Z,17.05
2023-03-05T08:48:53.079Z,16.96
2023-03-05T08:53:56.580Z,16.76
2023-03-05T08:58:58.737Z,16.95
2023-03-05T09:04:01.349Z,16.97
2023-03-05T09:09:03.350Z,16.88
2023-03-05T09:14:06.958Z,16.95
2023-03-05T09:19:10.757Z,16.98
2023-03-05T09:24:13.798Z,17.12
2023-03-05T09:29:15.583Z,17.14
2023-03-05T09:34:17.517Z,17.09
2023-03-05T09:39:19.583Z,17.16
2023-03-05T09:44:41.820Z,17.14
2023-03-05T09:49:59.955Z,17.01
2023-03-05T09:55:02.338Z,17.11
2023-03-05T10:00:11.598Z,17.28
2023-03-05T10:05:29.658Z,17.09
2023-03-05T10:10:47.795Z,17.08
2023-03-05T10:15:52.413Z,17.13
2023-03-05T10:21:02.811Z,17.07
2023-03-05T10:26:28.732Z,17.08
2023-03-05T10:31:54.098Z,17.09
2023-03-05T10:37:08.648Z,17.07
2023-03-05T10:42:15.328Z,17.07
2023-03-05T10:47:31.412Z,17.05
2023-03-05T10:52:40.769Z,16.81
2023-03-05T10:57:42.659Z,16.73
2023-03-05T11:03:03.187Z,17.00
2023-03-05T11:08:25.899Z,17.04
2023-03-05T11:13:29.263Z,17.09
2023-03-05T11:18:34.975Z,17.16
2023-03-05T11:23:36.999Z,17.05
2023-03-05T11:28:42.242Z,16.90
2023-03-05T11:33:57.195Z,16.93
2023-03-05T11:39:07.917Z,16.97
2023-03-05T11:44:17.995Z,17.01
2023-03-05T11:49:25.126Z,17.16
2023-03-05T11:55:14.208Z,17.15
2023-03-05T12:00:22.321Z,17.17
2023-03-05T12:05:24.807Z,17.04
2023-03-05T12:10:27.792Z,16.92
2023-03-05T12:15:45.860Z,16.99
2023-03-05T12:21:01.147Z,16.84
2023-03-05T12:26:03.000Z,16.81
2023-03-05T12:31:10.813Z,16.93
2023-03-05T12:36:21.980Z,16.99
2023-03-05T12:41:24.519Z,16.96
2023-03-05T12:46:29.837Z,16.91
2023-03-05T12:51:36.180Z,16.83
2023-03-05T12:56:46.764Z,16.96
2023-03-05T13:02:00.902Z,16.92
2023-03-05T13:07:14.371Z,16.94
2023-03-05T13:12:17.192Z,16.99
2023-03-05T13:17:29.679Z,16.97
2023-03-05T13:22:31.777Z,16.98
2023-03-05T13:27:34.127Z,16.96
2023-03-05T13:32:35.993Z,16.99
2023-03-05T13:37:38.344Z,16.99
2023-03-05T13:42:40.306Z,16.96
2023-03-05T13:47:54.253Z,16.96
2023-03-05T13:52:58.425Z,17.13
2023-03-05T13:58:01.326Z,17.12
2023-03-05T14:03:23.523Z,17.13
2023-03-05T14:08:26.820Z,17.17
2023-03-05T14:13:29.762Z,17.22
2023-03-05T14:18:32.118Z,17.15
2023-03-05T14:23:37.123Z,17.20
2023-03-05T14:28:39.064Z,17.20
2023-03-05T14:33:40.844Z,17.17
2023-03-05T14:38:43.383Z,17.19
2023-03-05T14:43:45.230Z,17.21
2023-03-05T14:48:47.509Z,17.26
2023-03-05T14:53:51.191Z,17.30
2023-03-05T14:58:53.268Z,17.24
2023-03-05T15:03:55.746Z,17.41
2023-03-05T15:08:57.651Z,17.23
2023-03-05T15:13:59.493Z,17.18
2023-03-05T15:19:03.803Z,17.19
2023-03-05T15:24:06.195Z,17.20
2023-03-05T15:29:08.377Z,17.16
2023-03-05T15:34:10.454Z,17.09
2023-03-05T15:39:12.206Z,17.09
2023-03-05T15:44:14.242Z,17.05
2023-03-05T15:49:18.182Z,17.11
2023-03-05T15:54:19.906Z,17.09
2023-03-05T15:59:21.906Z,17.09
2023-03-05T16:04:24.084Z,17.10
2023-03-05T16:09:30.038Z,17.17
2023-03-05T16:14:32.943Z,17.20
2023-03-05T16:19:38.356Z,17.09
2023-03-05T16:24:40.450Z,17.15
2023-03-05T16:29:43.062Z,17.16
2023-03-05T16:34:45.374Z,17.07
2023-03-05T16:39:47.820Z,17.13
2023-03-05T16:44:50.298Z,17.15
2023-03-05T16:49:52.196Z,17.17
2023-03-05T16:54:54.153Z,17.14
2023-03-05T16:59:56.950Z,17.13
2023-03-05T17:04:59.193Z,17.14
2023-03-05T17:10:01.098Z,17.12
2023-03-05T17:15:03.195Z,17.25
2023-03-05T17:20:05.863Z,17.16
2023-03-05T17:25:11.109Z,17.20
2023-03-05T17:30:13.977Z,17.13
2023-03-05T17:35:20.709Z,17.20
2023-03-05T17:40:23.706Z,17.27
2023-03-05T17:45:26.014Z,17.14
2023-03-05T17:50:28.380Z,17.16
2023-03-05T17:55:30.847Z,17.27
2023-03-05T18:00:33.177Z,17.44
2023-03-05T18:05:35.244Z,17.45
2023-03-05T18:10:37.229Z,17.64
2023-03-05T18:15:42.023Z,17.51
2023-03-05T18:20:44.245Z,17.64
2023-03-05T18:25:46.074Z,17.60
2023-03-05T18:30:48.509Z,17.61
2023-03-05T18:35:52.588Z,17.53
2023-03-05T18:40:56.767Z,17.65
2023-03-05T18:45:59.170Z,17.66
2023-03-05T18:51:02.168Z,17.24
2023-03-05T18:56:04.318Z,17.26
2023-03-05T19:01:07.168Z,17.12
2023-03-05T19:06:09.077Z,17.19
2023-03-05T19:11:19.991Z,17.25
2023-03-05T19:16:26.954Z,17.37
2023-03-05T19:21:32.261Z,17.47
2023-03-05T19:26:34.120Z,17.46
2023-03-05T19:31:36.825Z,17.42
2023-03-05T19:36:38.701Z,17.50
2023-03-05T19:41:40.739Z,17.51
2023-03-05T19:46:43.816Z,17.51
2023-03-05T19:51:46.166Z,17.65
2023-03-05T19:56:49.237Z,17.58
2023-03-05T20:01:51.825Z,17.57
2023-03-05T20:06:53.762Z,17.45
2023-03-05T20:11:58.015Z,17.72
2023-03-05T20:16:59.964Z,17.66
2023-03-05T20:22:02.004Z,17.45
2023-03-05T20:27:04.351Z,17.21
2023-03-05T20:32:06.496Z,17.44
2023-03-05T20:37:08.495Z,17.52
2023-03-05T20:42:10.174Z,17.56
2023-03-05T20:47:46.217Z,17.75
2023-03-05T20:52:48.177Z,17.81
2023-03-05T20:57:50.105Z,17.71
2023-03-05T21:02:54.768Z,17.66
2023-03-05T21:07:57.922Z,17.61
2023-03-05T21:13:00.943Z,17.66
2023-03-05T21:18:02.924Z,17.82
2023-03-05T21:23:04.662Z,17.75
2023-03-05T21:28:18.928Z,17.80
2023-03-05T21:33:26.396Z,17.83
2023-03-05T21:38:30.606Z,17.88
2023-03-05T21:43:33.259Z,17.82
2023-03-05T21:48:35.061Z,17.44
2023-03-05T21:53:36.860Z,17.28
2023-03-05T21:58:39.096Z,17.31
2023-03-05T22:03:41.131Z,17.21
2023-03-05T22:08:43.516Z,17.33
2023-03-05T22:13:45.853Z,17.32
2023-03-05T22:18:47.618Z,17.41
2023-03-05T22:23:50.124Z,17.34
2023-03-05T22:28:52.313Z,17.46
2023-03-05T22:33:54.462Z,17.68
2023-03-05T22:38:56.328Z,17.83
2023-03-05T22:43:58.405Z,17.85
2023-03-05T22:49:00.216Z,17.85
2023-03-05T22:54:02.438Z,17.94
2023-03-05T22:59:04.490Z,17.95
2023-03-05T23:04:49.697Z,17.85
2023-03-05T23:09:54.459Z,17.84
2023-03-05T23:14:58.986Z,17.79
2023-03-05T23:20:01.089Z,17.80
2023-03-05T23:25:03.283Z,17.80
2023-03-05T23:30:23.140Z,17.80
2023-03-05T23:35:48.688Z,17.80
2023-03-05T23:40:55.598Z,17.86
2023-03-05T23:45:57.774Z,17.85
2023-03-05T23:50:59.806Z,17.91
2023-03-05T23:56:01.846Z,17.76
